createdAt,value
2023-06-26T00:00:49.578Z,45.30
2023-06-26T00:03:16.634Z,45.25
2023-06-26T00:05:43.803Z,44.99
2023-06-26T00:08:10.715Z,45.21
2023-06-26T00:10:37.878Z,45.26
2023-06-26T00:13:04.875Z,45.18
2023-06-26T00:15:32.893Z,45.27
2023-06-26T00:18:00.220Z,45.33
2023-06-26T00:20:27.039Z,45.48
2023-06-26T00:22:54.904Z,45.37
2023-06-26T00:25:21.786Z,45.17
2023-06-26T00:27:48.723Z,45.18
2023-06-26T00:30:15.546Z,45.30
2023-06-26T00:32:42.396Z,45.10
2023-06-26T00:35:09.287Z,45.24
2023-06-26T00:37:37.248Z,45.18
2023-06-26T00:40:06.762Z,45.40
2023-06-26T00:42:34.104Z,45.23
2023-06-26T00:45:01.043Z,45.31
2023-06-26T00:47:28.533Z,45.51
2023-06-26T00:49:55.918Z,45.51
2023-06-26T00:52:25.004Z,45.69
2023-06-26T00:54:54.832Z,45.40
2023-06-26T00:57:21.736Z,45.44
2023-06-26T00:59:49.336Z,45.65
2023-06-26T01:02:19.009Z,45.52
2023-06-26T01:04:48.275Z,45.73
2023-06-26T01:07:16.702Z,45.62
2023-06-26T01:09:43.958Z,45.90
2023-06-26T01:12:10.761Z,45.61
2023-06-26T01:14:38.014Z,46.04
2023-06-26T01:17:05.170Z,45.93
2023-06-26T01:19:34.579Z,46.04
2023-06-26T01:22:16.532Z,45.75
2023-06-26T01:24:52.854Z,45.83
2023-06-26T01:27:23.251Z,45.93
2023-06-26T01:29:51.265Z,45.90
2023-06-26T01:32:18.829Z,46.14
2023-06-26T01:34:46.067Z,46.11
2023-06-26T01:37:12.907Z,46.02
2023-06-26T01:39:40.066Z,46.07
2023-06-26T01:42:07.023Z,45.96
2023-06-26T01:44:36.592Z,45.97
2023-06-26T01:47:06.937Z,46.09
2023-06-26T01:49:33.767Z,46.10
2023-06-26T01:52:27.157Z,46.17
2023-06-26T01:54:57.153Z,46.16
2023-06-26T01:57:24.552Z,45.94
2023-06-26T01:59:52.465Z,46.00
2023-06-26T02:02:19.723Z,46.26
2023-06-26T02:04:49.483Z,46.08
2023-06-26T02:07:16.549Z,45.98
2023-06-26T02:09:43.671Z,46.11
2023-06-26T02:12:11.538Z,46.21
2023-06-26T02:14:38.617Z,46.19
2023-06-26T02:17:05.992Z,45.98
2023-06-26T02:19:33.009Z,45.91
2023-06-26T02:21:59.933Z,46.15
2023-06-26T02:24:31.138Z,46.20
2023-06-26T02:27:01.778Z,45.98
2023-06-26T02:29:29.443Z,46.21
2023-06-26T02:31:56.382Z,46.12
2023-06-26T02:34:23.460Z,46.00
2023-06-26T02:36:50.546Z,46.02
2023-06-26T02:39:17.602Z,46.07
2023-06-26T02:41:45.444Z,45.94
2023-06-26T02:44:13.554Z,45.87
2023-06-26T02:46:40.530Z,46.01
2023-06-26T02:49:08.227Z,45.91
2023-06-26T02:51:35.511Z,46.07
2023-06-26T02:54:08.760Z,46.10
2023-06-26T02:56:40.126Z,46.09
2023-06-26T02:59:12.120Z,46.13
2023-06-26T03:01:39.158Z,46.22
2023-06-26T03:04:06.540Z,46.11
2023-06-26T03:06:34.275Z,46.08
2023-06-26T03:09:01.237Z,46.15
2023-06-26T03:11:28.268Z,46.29
2023-06-26T03:13:55.843Z,46.17
2023-06-26T03:16:23.147Z,46.29
2023-06-26T03:18:50.028Z,46.27
2023-06-26T03:21:16.909Z,46.32
2023-06-26T03:23:43.937Z,46.34
2023-06-26T03:26:12.254Z,46.18
2023-06-26T03:28:40.034Z,46.13
2023-06-26T03:31:09.543Z,46.09
2023-06-26T03:33:36.510Z,45.90
2023-06-26T03:36:03.861Z,45.83
2023-06-26T03:38:30.738Z,45.83
2023-06-26T03:41:00.117Z,45.78
2023-06-26T03:43:27.112Z,45.62
2023-06-26T03:46:05.327Z,45.68
2023-06-26T03:48:32.371Z,45.48
2023-06-26T03:50:59.396Z,45.57
2023-06-26T03:53:26.287Z,45.39
2023-06-26T03:55:53.307Z,45.34
2023-06-26T03:58:23.739Z,45.35
2023-06-26T04:00:50.659Z,45.21
2023-06-26T04:03:17.764Z,45.35
2023-06-26T04:05:45.188Z,45.30
2023-06-26T04:08:11.999Z,45.12
2023-06-26T04:10:39.357Z,44.98
2023-06-26T04:13:06.303Z,44.91
2023-06-26T04:15:33.294Z,44.99
2023-06-26T04:18:00.310Z,45.08
2023-06-26T04:20:27.254Z,45.01
2023-06-26T04:22:54.264Z,44.81
2023-06-26T04:25:21.412Z,44.59
2023-06-26T04:27:48.397Z,44.49
2023-06-26T04:30:15.496Z,44.35
2023-06-26T04:32:42.397Z,44.33
2023-06-26T04:35:11.287Z,44.12
2023-06-26T04:37:38.139Z,44.11
2023-06-26T04:40:05.401Z,44.02
2023-06-26T04:42:34.198Z,43.82
2023-06-26T04:45:03.313Z,43.68
2023-06-26T04:47:30.883Z,43.59
2023-06-26T04:49:57.732Z,43.66
2023-06-26T04:52:24.553Z,43.55
2023-06-26T04:54:51.574Z,43.51
2023-06-26T04:57:19.341Z,43.48
2023-06-26T04:59:46.332Z,43.51
2023-06-26T05:02:16.094Z,43.37
2023-06-26T05:04:43.763Z,43.40
2023-06-26T05:07:10.912Z,43.35
2023-06-26T05:09:37.917Z,43.37
2023-06-26T05:12:04.966Z,43.40
2023-06-26T05:14:31.944Z,43.32
2023-06-26T05:16:58.747Z,43.28
2023-06-26T05:19:25.560Z,43.31
2023-06-26T05:21:53.204Z,43.22
2023-06-26T05:24:21.933Z,43.16
2023-06-26T05:26:49.705Z,43.19
2023-06-26T05:29:16.672Z,43.03
2023-06-26T05:31:47.390Z,43.02
2023-06-26T05:34:14.740Z,43.03
2023-06-26T05:36:42.690Z,43.05
2023-06-26T05:39:09.691Z,43.05
2023-06-26T05:41:37.111Z,43.08
2023-06-26T05:44:04.137Z,43.06
2023-06-26T05:46:31.007Z,43.20
2023-06-26T05:48:58.111Z,43.12
2023-06-26T05:51:25.064Z,43.13
2023-06-26T05:53:52.245Z,42.96
2023-06-26T05:56:19.926Z,42.94
2023-06-26T05:58:47.187Z,42.82
2023-06-26T06:01:14.041Z,42.70
2023-06-26T06:03:41.466Z,42.68
2023-06-26T06:06:08.549Z,42.59
2023-06-26T06:08:35.504Z,42.58
2023-06-26T06:11:03.136Z,42.58
2023-06-26T06:13:30.092Z,42.48
2023-06-26T06:15:58.823Z,42.41
2023-06-26T06:18:25.806Z,42.36
2023-06-26T06:20:52.660Z,42.28
2023-06-26T06:23:19.587Z,42.28
2023-06-26T06:25:46.544Z,42.36
2023-06-26T06:28:13.487Z,42.16
2023-06-26T06:30:45.579Z,42.09
2023-06-26T06:33:12.777Z,42.13
2023-06-26T06:35:40.017Z,42.10
2023-06-26T06:38:07.146Z,42.06
2023-06-26T06:40:33.991Z,42.06
2023-06-26T06:43:00.862Z,42.03
2023-06-26T06:45:27.784Z,42.18
2023-06-26T06:47:54.625Z,42.01
2023-06-26T06:50:21.784Z,41.84
2023-06-26T06:52:48.633Z,41.85
2023-06-26T06:55:15.542Z,41.75
2023-06-26T06:57:42.438Z,41.75
2023-06-26T07:00:10.278Z,41.71
2023-06-26T07:02:37.815Z,41.63
2023-06-26T07:05:05.137Z,41.59
2023-06-26T07:07:33.283Z,41.58
2023-06-26T07:10:01.335Z,41.65
2023-06-26T07:12:28.220Z,41.50
2023-06-26T07:14:55.429Z,41.36
2023-06-26T07:17:22.486Z,41.49
2023-06-26T07:19:50.315Z,41.20
2023-06-26T07:22:17.537Z,41.42
2023-06-26T07:24:44.539Z,41.53
2023-06-26T07:27:11.648Z,41.32
2023-06-26T07:29:38.619Z,41.24
2023-06-26T07:32:05.786Z,41.11
2023-06-26T07:34:32.696Z,41.24
2023-06-26T07:36:59.639Z,40.99
2023-06-26T07:39:26.411Z,40.91
2023-06-26T07:41:53.738Z,41.04
2023-06-26T07:44:20.717Z,40.96
2023-06-26T07:46:47.773Z,40.94
2023-06-26T07:49:14.871Z,40.59
2023-06-26T07:51:41.755Z,40.76
2023-06-26T07:54:08.830Z,40.48
2023-06-26T07:56:56.161Z,40.65
2023-06-26T07:59:24.293Z,40.41
2023-06-26T08:01:52.008Z,40.34
2023-06-26T08:04:20.098Z,40.47
2023-06-26T08:06:48.829Z,40.36
2023-06-26T08:09:15.800Z,40.47
2023-06-26T08:11:42.707Z,40.66
2023-06-26T08:14:09.561Z,40.52
2023-06-26T08:16:36.530Z,40.28
2023-06-26T08:19:03.348Z,40.27
2023-06-26T08:21:30.417Z,40.42
2023-06-26T08:23:57.619Z,40.78
2023-06-26T08:26:24.442Z,40.46
2023-06-26T08:28:51.459Z,40.62
2023-06-26T08:31:18.637Z,40.47
2023-06-26T08:33:45.596Z,40.61
2023-06-26T08:36:12.537Z,40.82
2023-06-26T08:38:41.488Z,40.53
2023-06-26T08:41:10.246Z,40.82
2023-06-26T08:43:37.474Z,41.04
2023-06-26T08:46:04.471Z,40.87
2023-06-26T08:48:34.314Z,41.15
2023-06-26T08:51:02.852Z,40.83
2023-06-26T08:53:41.889Z,41.06
2023-06-26T08:56:09.472Z,41.13
2023-06-26T08:58:40.054Z,40.90
2023-06-26T09:01:08.913Z,40.94
2023-06-26T09:03:36.629Z,41.01
2023-06-26T09:06:03.738Z,40.79
2023-06-26T09:08:31.025Z,41.00
2023-06-26T09:10:57.978Z,41.11
2023-06-26T09:13:29.789Z,41.07
2023-06-26T09:15:57.708Z,41.02
2023-06-26T09:18:24.755Z,40.93
2023-06-26T09:20:52.007Z,40.98
2023-06-26T09:23:19.116Z,41.29
2023-06-26T09:25:48.247Z,41.22
2023-06-26T09:28:16.297Z,41.23
2023-06-26T09:30:43.370Z,41.33
2023-06-26T09:33:17.102Z,41.21
2023-06-26T09:35:47.568Z,41.31
2023-06-26T09:38:16.013Z,41.16
2023-06-26T09:40:43.269Z,41.11
2023-06-26T09:43:11.292Z,41.17
2023-06-26T09:45:38.171Z,41.17
2023-06-26T09:48:05.367Z,41.01
2023-06-26T09:50:35.654Z,40.95
2023-06-26T09:53:08.693Z,41.00
2023-06-26T09:55:36.746Z,40.88
2023-06-26T09:58:04.965Z,40.83
2023-06-26T10:00:34.651Z,40.98
2023-06-26T10:03:02.279Z,40.97
2023-06-26T10:05:29.374Z,40.83
2023-06-26T10:07:56.942Z,40.75
2023-06-26T10:10:24.674Z,40.83
2023-06-26T10:12:55.721Z,40.71
2023-06-26T10:15:24.566Z,40.48
2023-06-26T10:17:53.070Z,40.85
2023-06-26T10:20:20.253Z,41.13
2023-06-26T10:22:47.834Z,40.95
2023-06-26T10:25:17.870Z,40.75
2023-06-26T10:27:46.601Z,40.73
2023-06-26T10:30:17.196Z,40.87
2023-06-26T10:32:44.281Z,40.70
2023-06-26T10:35:11.708Z,40.73
2023-06-26T10:37:49.101Z,40.53
2023-06-26T10:40:22.110Z,40.33
2023-06-26T10:42:49.104Z,40.49
2023-06-26T10:45:17.158Z,40.14
2023-06-26T10:47:48.230Z,40.39
2023-06-26T10:50:37.812Z,40.15
2023-06-26T10:53:20.079Z,39.97
2023-06-26T10:56:05.689Z,39.88
2023-06-26T10:58:42.468Z,39.73
2023-06-26T11:01:13.585Z,39.93
2023-06-26T11:03:41.591Z,39.43
2023-06-26T11:06:13.547Z,39.69
2023-06-26T11:08:53.467Z,39.72
2023-06-26T11:11:20.624Z,39.35
2023-06-26T11:13:48.260Z,39.24
2023-06-26T11:16:15.994Z,39.41
2023-06-26T11:18:43.604Z,39.24
2023-06-26T11:21:12.623Z,39.36
2023-06-26T11:23:40.474Z,39.30
2023-06-26T11:26:22.697Z,39.09
2023-06-26T11:28:50.631Z,38.93
2023-06-26T11:31:34.399Z,38.80
2023-06-26T11:34:02.712Z,38.69
2023-06-26T11:36:29.985Z,38.58
2023-06-26T11:39:01.502Z,39.33
2023-06-26T11:41:29.700Z,39.09
2023-06-26T11:43:57.454Z,39.11
2023-06-26T11:46:24.282Z,38.80
2023-06-26T11:48:51.333Z,38.62
2023-06-26T11:51:18.382Z,38.52
2023-06-26T11:53:46.844Z,38.47
2023-06-26T11:56:14.680Z,38.40
2023-06-26T11:59:02.289Z,37.88
2023-06-26T12:01:40.180Z,37.54
2023-06-26T12:04:08.951Z,37.27
2023-06-26T12:06:36.889Z,37.48
2023-06-26T12:09:06.410Z,37.83
2023-06-26T12:11:34.825Z,37.24
2023-06-26T12:14:02.259Z,36.34
2023-06-26T12:16:30.246Z,36.23
2023-06-26T12:19:15.844Z,36.34
2023-06-26T12:21:42.674Z,36.36
2023-06-26T12:24:10.511Z,37.01
2023-06-26T12:26:40.421Z,36.66
2023-06-26T12:29:08.045Z,38.39
2023-06-26T12:31:35.335Z,37.21
2023-06-26T12:34:02.782Z,37.27
2023-06-26T12:36:29.638Z,37.91
2023-06-26T12:38:56.609Z,37.16
2023-06-26T12:41:26.519Z,36.99
2023-06-26T12:43:59.601Z,36.02
2023-06-26T12:46:38.658Z,36.83
2023-06-26T12:49:12.186Z,36.67
2023-06-26T12:51:52.241Z,37.45
2023-06-26T12:54:19.208Z,37.29
2023-06-26T12:56:46.014Z,37.34
2023-06-26T12:59:12.942Z,37.90
2023-06-26T13:01:39.781Z,37.81
2023-06-26T13:04:07.296Z,37.83
2023-06-26T13:06:34.556Z,37.90
2023-06-26T13:09:01.524Z,38.09
2023-06-26T13:11:28.603Z,38.13
2023-06-26T13:14:09.516Z,38.27
2023-06-26T13:16:38.714Z,38.08
2023-06-26T13:19:05.852Z,38.10
2023-06-26T13:21:32.931Z,38.18
2023-06-26T13:24:00.450Z,37.95
2023-06-26T13:26:37.512Z,37.67
2023-06-26T13:29:05.880Z,36.84
2023-06-26T13:31:33.309Z,35.37
2023-06-26T13:34:01.859Z,34.86
2023-06-26T13:36:28.904Z,34.24
2023-06-26T13:38:58.506Z,33.91
2023-06-26T13:41:26.134Z,34.08
2023-06-26T13:43:53.782Z,32.62
2023-06-26T13:46:22.286Z,34.07
2023-06-26T13:48:49.135Z,33.92
2023-06-26T13:51:16.184Z,32.76
2023-06-26T13:53:43.186Z,32.05
2023-06-26T13:56:10.422Z,32.40
2023-06-26T13:58:37.862Z,31.57
2023-06-26T14:01:05.648Z,31.85
2023-06-26T14:03:32.805Z,31.99
2023-06-26T14:06:00.331Z,30.98
2023-06-26T14:08:27.252Z,31.32
2023-06-26T14:10:54.078Z,31.05
2023-06-26T14:13:23.784Z,31.73
2023-06-26T14:15:54.357Z,32.60
2023-06-26T14:18:22.352Z,30.71
2023-06-26T14:20:49.543Z,30.72
2023-06-26T14:23:16.600Z,30.95
2023-06-26T14:25:43.562Z,32.28
2023-06-26T14:28:10.483Z,32.76
2023-06-26T14:30:37.753Z,34.30
2023-06-26T14:33:04.874Z,34.36
2023-06-26T14:35:31.934Z,34.55
2023-06-26T14:37:58.885Z,34.36
2023-06-26T14:40:25.711Z,35.12
2023-06-26T14:42:54.279Z,35.55
2023-06-26T14:45:21.673Z,35.98
2023-06-26T14:47:49.265Z,35.48
2023-06-26T14:50:16.223Z,34.99
2023-06-26T14:52:43.148Z,33.72
2023-06-26T14:55:10.518Z,32.95
2023-06-26T14:57:37.350Z,32.18
2023-06-26T15:00:05.334Z,31.96
2023-06-26T15:02:34.044Z,31.11
2023-06-26T15:05:01.225Z,30.64
2023-06-26T15:07:29.699Z,30.77
2023-06-26T15:09:56.920Z,30.74
2023-06-26T15:12:24.813Z,30.55
2023-06-26T15:14:53.149Z,29.06
2023-06-26T15:17:20.227Z,29.33
2023-06-26T15:19:47.370Z,28.72
2023-06-26T15:22:14.360Z,28.83
2023-06-26T15:24:41.219Z,29.13
2023-06-26T15:27:08.296Z,28.57
2023-06-26T15:29:35.532Z,30.26
2023-06-26T15:32:02.637Z,28.28
2023-06-26T15:34:29.489Z,29.26
2023-06-26T15:36:56.393Z,28.46
2023-06-26T15:39:23.558Z,28.89
2023-06-26T15:41:50.633Z,29.26
2023-06-26T15:44:17.537Z,27.64
2023-06-26T15:46:44.503Z,28.03
2023-06-26T15:49:11.624Z,27.17
2023-06-26T15:51:38.960Z,29.08
2023-06-26T15:54:06.158Z,30.76
2023-06-26T15:56:33.300Z,31.58
2023-06-26T15:59:00.378Z,32.59
2023-06-26T16:01:27.896Z,32.84
2023-06-26T16:03:55.227Z,33.89
2023-06-26T16:06:22.134Z,34.57
2023-06-26T16:08:50.353Z,35.26
2023-06-26T16:11:17.400Z,35.39
2023-06-26T16:13:45.191Z,35.50
2023-06-26T16:16:15.736Z,35.62
2023-06-26T16:18:42.575Z,35.51
2023-06-26T16:21:09.565Z,35.64
2023-06-26T16:23:36.519Z,35.60
2023-06-26T16:26:03.421Z,35.59
2023-06-26T16:28:30.251Z,35.55
2023-06-26T16:30:57.233Z,35.53
2023-06-26T16:33:24.334Z,35.46
2023-06-26T16:35:51.243Z,35.57
2023-06-26T16:38:18.265Z,35.45
2023-06-26T16:40:45.074Z,35.30
2023-06-26T16:43:13.110Z,35.26
2023-06-26T16:45:39.909Z,35.22
2023-06-26T16:48:06.986Z,35.37
2023-06-26T16:50:33.944Z,35.41
2023-06-26T16:53:00.832Z,35.30
2023-06-26T16:55:27.766Z,35.41
2023-06-26T16:57:54.970Z,35.44
2023-06-26T17:00:21.751Z,35.50
2023-06-26T17:02:48.743Z,35.56
2023-06-26T17:05:16.369Z,35.27
2023-06-26T17:07:43.335Z,35.25
2023-06-26T17:10:10.482Z,35.33
2023-06-26T17:12:41.123Z,35.31
2023-06-26T17:15:08.398Z,35.35
2023-06-26T17:17:35.828Z,35.41
2023-06-26T17:20:04.683Z,35.35
2023-06-26T17:22:33.766Z,35.40
2023-06-26T17:25:05.586Z,35.43
2023-06-26T17:27:32.951Z,35.47
2023-06-26T17:30:00.437Z,35.40
2023-06-26T17:32:28.013Z,35.35
2023-06-26T17:34:54.982Z,35.32
2023-06-26T17:37:41.633Z,35.37
2023-06-26T17:40:12.361Z,35.37
2023-06-26T17:42:44.233Z,35.30
2023-06-26T17:45:11.996Z,35.38
2023-06-26T17:47:39.095Z,35.44
2023-06-26T17:50:06.478Z,35.32
2023-06-26T17:52:33.404Z,35.41
2023-06-26T17:55:00.324Z,35.30
2023-06-26T17:57:27.466Z,35.39
2023-06-26T17:59:55.425Z,35.47
2023-06-26T18:02:22.532Z,35.49
2023-06-26T18:04:49.377Z,35.47
2023-06-26T18:07:17.243Z,35.44
2023-06-26T18:09:44.294Z,35.50
2023-06-26T18:12:11.323Z,35.58
2023-06-26T18:14:38.291Z,35.63
2023-06-26T18:17:05.317Z,35.62
2023-06-26T18:19:32.112Z,35.49
2023-06-26T18:21:59.094Z,35.62
2023-06-26T18:24:26.011Z,35.65
2023-06-26T18:26:52.897Z,35.63
2023-06-26T18:29:19.709Z,35.68
2023-06-26T18:31:46.615Z,35.81
2023-06-26T18:34:13.583Z,35.82
2023-06-26T18:36:40.526Z,35.83
2023-06-26T18:39:12.488Z,35.91
2023-06-26T18:41:42.215Z,35.85
2023-06-26T18:44:09.317Z,35.91
2023-06-26T18:46:36.384Z,35.85
2023-06-26T18:49:06.725Z,36.00
2023-06-26T18:51:34.395Z,35.98
2023-06-26T18:54:02.364Z,35.91
2023-06-26T18:56:33.020Z,36.02
2023-06-26T18:59:00.021Z,36.14
2023-06-26T19:01:27.469Z,36.02
2023-06-26T19:03:54.460Z,36.09
2023-06-26T19:06:21.698Z,36.09
2023-06-26T19:08:48.562Z,36.02
2023-06-26T19:11:16.940Z,36.09
2023-06-26T19:13:44.232Z,36.32
2023-06-26T19:16:11.108Z,36.36
2023-06-26T19:18:38.135Z,36.29
2023-06-26T19:21:05.042Z,36.21
2023-06-26T19:23:32.072Z,36.21
2023-06-26T19:25:59.885Z,36.25
2023-06-26T19:28:27.175Z,36.22
2023-06-26T19:30:54.072Z,36.46
2023-06-26T19:33:21.136Z,36.41
2023-06-26T19:35:48.044Z,36.45
2023-06-26T19:38:15.156Z,36.32
2023-06-26T19:40:42.164Z,36.51
2023-06-26T19:43:09.384Z,36.53
2023-06-26T19:45:36.605Z,36.58
2023-06-26T19:48:03.907Z,36.53
2023-06-26T19:50:30.966Z,36.60
2023-06-26T19:52:57.913Z,36.64
2023-06-26T19:55:24.913Z,36.68
2023-06-26T19:57:52.378Z,36.70
2023-06-26T20:00:19.739Z,36.52
2023-06-26T20:02:46.740Z,36.56
2023-06-26T20:05:16.941Z,36.68
2023-06-26T20:07:44.529Z,36.65
2023-06-26T20:10:11.583Z,36.69
2023-06-26T20:12:38.514Z,36.99
2023-06-26T20:15:05.724Z,36.83
2023-06-26T20:17:32.666Z,36.91
2023-06-26T20:20:00.739Z,37.04
2023-06-26T20:22:27.936Z,36.88
2023-06-26T20:24:55.124Z,36.91
2023-06-26T20:27:22.029Z,37.06
2023-06-26T20:29:48.974Z,36.97
2023-06-26T20:32:15.989Z,37.13
2023-06-26T20:34:43.387Z,37.00
2023-06-26T20:37:10.328Z,37.18
2023-06-26T20:39:37.706Z,37.16
2023-06-26T20:42:05.007Z,37.05
2023-06-26T20:44:32.135Z,37.20
2023-06-26T20:47:10.143Z,37.25
2023-06-26T20:49:37.913Z,37.45
2023-06-26T20:52:08.902Z,37.38
2023-06-26T20:54:39.142Z,37.53
2023-06-26T20:57:09.684Z,37.57
2023-06-26T20:59:39.979Z,37.70
2023-06-26T21:02:07.330Z,37.72
2023-06-26T21:04:37.869Z,37.53
2023-06-26T21:07:06.888Z,37.71
2023-06-26T21:09:33.972Z,37.65
2023-06-26T21:12:02.814Z,37.74
2023-06-26T21:14:29.710Z,37.74
2023-06-26T21:16:56.609Z,37.78
2023-06-26T21:19:23.719Z,37.84
2023-06-26T21:21:50.543Z,37.81
2023-06-26T21:24:17.507Z,37.93
2023-06-26T21:26:44.292Z,38.09
2023-06-26T21:29:11.363Z,37.98
2023-06-26T21:31:38.629Z,38.26
2023-06-26T21:34:05.551Z,38.24
2023-06-26T21:36:32.448Z,38.17
2023-06-26T21:38:59.335Z,38.12
2023-06-26T21:41:26.185Z,38.17
2023-06-26T21:43:53.157Z,38.22
2023-06-26T21:46:20.112Z,38.22
2023-06-26T21:48:47.190Z,38.16
2023-06-26T21:51:14.189Z,38.00
2023-06-26T21:53:41.058Z,38.12
2023-06-26T21:56:07.946Z,38.04
2023-06-26T21:58:35.051Z,38.22
2023-06-26T22:01:01.890Z,38.22
2023-06-26T22:03:28.773Z,38.28
2023-06-26T22:05:55.739Z,38.29
2023-06-26T22:08:22.673Z,38.50
2023-06-26T22:10:49.512Z,38.42
2023-06-26T22:13:16.609Z,38.53
2023-06-26T22:15:43.683Z,38.57
2023-06-26T22:18:10.863Z,38.52
2023-06-26T22:20:37.866Z,38.41
2023-06-26T22:23:04.856Z,38.63
2023-06-26T22:25:32.077Z,38.59
2023-06-26T22:27:58.891Z,38.61
2023-06-26T22:30:26.057Z,38.63
2023-06-26T22:32:53.097Z,38.59
2023-06-26T22:35:20.193Z,38.71
2023-06-26T22:37:47.093Z,38.67
2023-06-26T22:40:16.008Z,38.79
2023-06-26T22:42:42.928Z,38.76
2023-06-26T22:45:11.359Z,38.91
2023-06-26T22:47:39.073Z,38.89
2023-06-26T22:50:07.465Z,38.73
2023-06-26T22:52:35.303Z,38.77
2023-06-26T22:55:02.986Z,39.00
2023-06-26T22:57:30.846Z,38.85
2023-06-26T22:59:57.928Z,38.90
2023-06-26T23:02:24.912Z,39.03
2023-06-26T23:04:51.988Z,39.02
2023-06-26T23:07:21.552Z,38.99
2023-06-26T23:09:49.919Z,39.18
2023-06-26T23:12:17.346Z,39.23
2023-06-26T23:14:44.675Z,39.05
2023-06-26T23:17:12.802Z,39.21
2023-06-26T23:19:41.130Z,39.28
2023-06-26T23:22:10.723Z,39.17
2023-06-26T23:24:38.868Z,39.18
2023-06-26T23:27:09.731Z,39.21
2023-06-26T23:29:37.702Z,39.35
2023-06-26T23:32:06.981Z,39.32
2023-06-26T23:34:40.606Z,39.32
2023-06-26T23:37:08.990Z,39.42
2023-06-26T23:39:39.520Z,39.53
2023-06-26T23:42:07.240Z,39.43
2023-06-26T23:44:36.764Z,39.56
2023-06-26T23:47:07.496Z,39.51
2023-06-26T23:49:35.488Z,39.66
2023-06-26T23:52:02.922Z,39.67
2023-06-26T23:54:32.172Z,39.66
2023-06-26T23:56:59.671Z,39.71
2023-06-26T23:59:26.584Z,39.83
